Date,TemperatureHighF,TemperatureAvgF,TemperatureLowF,DewpointHighF,DewpointAvgF,DewpointLowF,HumidityHigh,HumidityAvg,HumidityLow,PressureMaxIn,PressureMinIn,WindSpeedMaxMPH,WindSpeedAvgMPH,GustSpeedMaxMPH,PrecipitationSumIn
2013-7-1,80,73,69,75,71,68,97,94,81,30.01,29.88,6,0,9,0.06
2013-7-2,85,76,70,77,72,69,97,90,72,30.11,29.99,11,3,17,3.14
2013-7-3,86,77,70,78,73,69,98,87,69,30.15,30.07,8,2,11,0.06
2013-7-4,92,81,69,78,73,68,97,80,53,30.16,30.02,11,2,14,0.00
2013-7-5,94,81,70,78,74,69,97,80,54,30.12,29.98,9,1,11,0.05
2013-7-6,89,78,68,76,71,65,97,81,53,30.05,29.96,7,0,13,0.00
2013-7-7,91,76,65,79,71,63,96,84,60,30.01,29.86,8,1,14,0.00
2013-7-8,88,78,72,75,72,70,97,83,55,30.00,29.88,6,1,15,0.46
2013-7-9,84,74,68,75,71,67,97,89,70,30.06,29.98,9,1,15,0.05
2013-7-10,82,74,69,77,72,68,97,92,79,30.00,29.74,13,2,22,1.28
2013-7-11,85,75,66,74,71,62,98,86,59,29.93,29.71,8,1,9,0.02
2013-7-12,82,71,61,69,64,60,96,80,57,30.17,29.94,8,2,11,0.00
2013-7-13,70,64,62,65,62,60,95,93,83,30.27,30.17,4,0,5,0.00
2013-7-16,92,79,70,74,63,-100,91,65,47,30.15,0.00,7,-49,14,0.00
2013-7-17,95,80,67,77,71,65,97,77,45,30.16,29.95,8,0,12,0.00
2013-7-18,96,83,71,78,73,69,97,76,47,29.98,29.88,6,0,11,0.00
2013-7-19,96,83,70,79,74,67,97,75,49,29.90,29.65,9,1,16,0.00
2013-7-20,89,77,67,74,69,64,95,77,56,29.77,29.63,0,0,6,0.00
2013-7-21,85,73,61,70,65,60,97,79,53,29.95,29.79,0,0,0,0.00
2013-7-22,85,72,64,73,66,60,94,82,61,29.99,29.83,0,0,0,0.08
2013-7-23,81,70,66,74,68,65,97,93,78,29.82,29.50,0,0,0,1.60
2013-7-24,82,71,58,72,64,51,98,79,54,29.97,29.56,8,2,18,0.00
2013-7-25,73,62,49,63,55,47,94,79,60,30.07,29.98,9,1,11,0.00
2013-7-26,73,66,59,66,61,57,93,86,71,30.04,29.95,7,1,11,0.00
2013-7-27,84,67,52,67,60,51,97,80,56,30.03,29.93,8,1,12,0.01
2013-7-28,73,60,70,67,41,-100,91,73,81,29.95,0.00,0,-154,6,0.00
2013-7-29,84,73,62,72,66,59,97,80,52,30.04,29.91,8,1,14,0.02
2013-7-30,81,68,54,63,59,53,97,75,45,30.09,30.01,9,1,12,0.00
2013-7-31,83,69,57,66,61,55,97,77,47,30.12,29.99,8,0,10,0.00